X  Luk Metar data     EBBR Brussels Airport
Temperatur
5°C Temperatur
3°C Duggpunkt
87% Fugtighed



Vind
3 KM/T
2 MPT
1 M/S
2 KNOB



80°
Øst
Nuværende forhold

Klart Klart
Tryk 1029.92 (hPa) - 30.41 (inHg)
Sigt 5 (mil) - 8 (km)
Lufthavn
Lufthavnskode EBBR

Lokation: Brussels Airport
Afstand: 14 (km)

Metar:
EBBR 012120Z 08002KT 8000 NSC 05/03 Q1030 NOSIG

Tid: 03-01-2021 22:20 CET